createdAt,value
2022-10-22T00:00:41.159Z,78.98
2022-10-22T00:01:42.627Z,78.99
2022-10-22T00:02:44.146Z,78.99
2022-10-22T00:03:45.627Z,78.84
2022-10-22T00:04:50.076Z,78.87
2022-10-22T00:05:51.553Z,78.78
2022-10-22T00:06:52.985Z,78.73
2022-10-22T00:07:54.415Z,78.59
2022-10-22T00:08:56.094Z,78.93
2022-10-22T00:09:57.563Z,79.14
2022-10-22T00:10:59.082Z,79.33
2022-10-22T00:12:00.618Z,79.39
2022-10-22T00:13:02.063Z,79.60
2022-10-22T00:14:03.589Z,79.94
2022-10-22T00:15:05.574Z,79.72
2022-10-22T00:16:07.464Z,79.84
2022-10-22T00:17:11.616Z,80.03
2022-10-22T00:18:13.244Z,80.05
2022-10-22T00:19:15.454Z,79.86
2022-10-22T00:20:17.102Z,80.13
2022-10-22T00:21:18.522Z,79.96
2022-10-22T00:22:19.970Z,79.88
2022-10-22T00:23:24.743Z,79.95
2022-10-22T00:24:26.564Z,79.77
2022-10-22T00:25:28.086Z,79.72
2022-10-22T00:26:29.607Z,79.55
2022-10-22T00:27:31.070Z,79.44
2022-10-22T00:28:32.544Z,78.98
2022-10-22T00:29:34.034Z,78.77
2022-10-22T00:30:35.481Z,78.91
2022-10-22T00:31:36.916Z,79.30
2022-10-22T00:32:38.712Z,79.50
2022-10-22T00:33:40.397Z,79.62
2022-10-22T00:34:41.859Z,79.45
2022-10-22T00:35:43.900Z,79.25
2022-10-22T00:36:45.640Z,79.46
2022-10-22T00:37:47.134Z,79.20
2022-10-22T00:38:48.551Z,78.85
2022-10-22T00:39:50.106Z,78.87
2022-10-22T00:40:51.637Z,79.13
2022-10-22T00:41:53.747Z,79.42
2022-10-22T00:42:55.175Z,79.80
2022-10-22T00:44:00.256Z,79.61
2022-10-22T00:45:04.820Z,79.62
2022-10-22T00:46:06.318Z,79.74
2022-10-22T00:47:07.747Z,79.78
2022-10-22T00:48:10.114Z,79.86
2022-10-22T00:49:11.627Z,80.04
2022-10-22T00:50:14.608Z,79.68
2022-10-22T00:51:16.087Z,79.35
2022-10-22T00:52:17.546Z,79.88
2022-10-22T00:53:19.913Z,80.09
2022-10-22T00:54:21.366Z,79.97
2022-10-22T00:55:23.309Z,79.60
2022-10-22T00:56:24.903Z,79.54
2022-10-22T00:57:26.365Z,79.49
2022-10-22T00:58:28.480Z,79.51
2022-10-22T00:59:29.980Z,79.60
2022-10-22T01:00:31.506Z,79.32
2022-10-22T01:01:33.156Z,79.33
2022-10-22T01:02:34.594Z,79.30
2022-10-22T01:03:36.119Z,79.16
2022-10-22T01:04:37.607Z,79.55
2022-10-22T01:05:59.388Z,79.52
2022-10-22T01:07:01.228Z,79.41
2022-10-22T01:08:02.704Z,79.29
2022-10-22T01:09:24.451Z,79.30
2022-10-22T01:10:35.819Z,79.27
2022-10-22T01:11:55.679Z,79.41
2022-10-22T01:13:17.577Z,79.57
2022-10-22T01:14:37.620Z,79.96
2022-10-22T01:15:50.859Z,80.70
2022-10-22T01:16:59.811Z,81.22
2022-10-22T01:18:02.973Z,82.03
2022-10-22T01:19:07.211Z,81.95
2022-10-22T01:20:27.407Z,82.33
2022-10-22T01:21:33.510Z,82.27
2022-10-22T01:22:42.163Z,82.03
2022-10-22T01:24:06.703Z,82.02
2022-10-22T01:25:12.303Z,82.45
2022-10-22T01:26:19.746Z,82.37
2022-10-22T01:27:21.262Z,82.07
2022-10-22T01:28:41.521Z,82.12
2022-10-22T01:29:43.921Z,82.77
2022-10-22T01:30:45.399Z,82.52
2022-10-22T01:31:48.491Z,82.28
2022-10-22T01:32:50.566Z,82.13
2022-10-22T01:33:52.007Z,82.00
2022-10-22T01:34:55.347Z,81.84
2022-10-22T01:35:56.861Z,81.54
2022-10-22T01:36:58.335Z,81.44
2022-10-22T01:38:01.443Z,81.21
2022-10-22T01:39:03.346Z,80.85
2022-10-22T01:40:05.122Z,80.49
2022-10-22T01:41:06.820Z,80.54
2022-10-22T01:42:08.352Z,80.30
2022-10-22T01:43:10.526Z,80.06
2022-10-22T01:44:27.035Z,80.24
2022-10-22T01:45:29.080Z,80.15
2022-10-22T01:46:30.511Z,80.26
2022-10-22T01:47:34.947Z,79.78
2022-10-22T01:48:42.185Z,80.03
2022-10-22T01:49:49.545Z,79.88
2022-10-22T01:50:51.019Z,79.97
2022-10-22T01:51:56.151Z,80.26
2022-10-22T01:53:03.480Z,79.99
2022-10-22T01:54:04.987Z,79.93
2022-10-22T01:55:06.417Z,79.71
2022-10-22T01:56:10.596Z,79.60
2022-10-22T01:57:18.278Z,79.87
2022-10-22T01:58:31.627Z,79.80
2022-10-22T01:59:35.195Z,79.96
2022-10-22T02:00:37.696Z,79.94
2022-10-22T02:01:45.583Z,79.95
2022-10-22T02:02:52.837Z,79.74
2022-10-22T02:04:03.506Z,79.43
2022-10-22T02:05:09.739Z,79.42
2022-10-22T02:06:13.871Z,79.64
2022-10-22T02:07:15.759Z,79.69
2022-10-22T02:08:20.774Z,79.62
2022-10-22T02:09:22.262Z,79.54
2022-10-22T02:10:23.696Z,79.56
2022-10-22T02:11:25.167Z,79.54
2022-10-22T02:12:26.827Z,79.34
2022-10-22T02:13:29.148Z,79.41
2022-10-22T02:14:30.603Z,79.48
2022-10-22T02:15:32.059Z,79.51
2022-10-22T02:16:45.831Z,79.63
2022-10-22T02:17:47.312Z,79.21
2022-10-22T02:18:49.532Z,79.25
2022-10-22T02:19:55.123Z,78.90
2022-10-22T02:20:56.710Z,78.94
2022-10-22T02:21:58.167Z,78.87
2022-10-22T02:22:59.782Z,78.74
2022-10-22T02:24:01.332Z,78.41
2022-10-22T02:25:03.318Z,78.50
2022-10-22T02:26:09.459Z,78.82
2022-10-22T02:27:14.095Z,78.69
2022-10-22T02:28:21.479Z,78.29
2022-10-22T02:29:26.699Z,77.93
2022-10-22T02:30:28.337Z,78.09
2022-10-22T02:31:31.082Z,77.63
2022-10-22T02:32:33.366Z,77.96
2022-10-22T02:33:36.179Z,77.91
2022-10-22T02:34:37.644Z,78.04
2022-10-22T02:35:39.068Z,77.94
2022-10-22T02:36:40.594Z,78.05
2022-10-22T02:37:42.029Z,77.91
2022-10-22T02:38:43.557Z,78.11
2022-10-22T02:39:45.003Z,78.00
2022-10-22T02:40:46.434Z,77.83
2022-10-22T02:41:48.280Z,77.49
2022-10-22T02:42:49.799Z,77.82
2022-10-22T02:43:53.319Z,77.76
2022-10-22T02:44:54.821Z,77.66
2022-10-22T02:45:56.302Z,77.74
2022-10-22T02:46:58.104Z,77.96
2022-10-22T02:47:59.536Z,77.82
2022-10-22T02:49:01.026Z,77.63
2022-10-22T02:50:05.433Z,77.46
2022-10-22T02:51:09.435Z,77.19
2022-10-22T02:52:10.877Z,77.34
2022-10-22T02:53:12.351Z,77.19
2022-10-22T02:54:13.767Z,77.22
2022-10-22T02:55:15.259Z,77.03
2022-10-22T02:56:16.719Z,76.83
2022-10-22T02:57:18.180Z,76.81
2022-10-22T02:58:19.643Z,76.68
2022-10-22T02:59:21.172Z,76.56
2022-10-22T03:00:22.603Z,76.48
2022-10-22T03:01:24.224Z,76.50
2022-10-22T03:02:25.690Z,76.52
2022-10-22T03:03:27.105Z,76.37
2022-10-22T03:04:28.669Z,76.24
2022-10-22T03:05:30.128Z,76.21
2022-10-22T03:06:31.622Z,76.40
2022-10-22T03:07:33.115Z,76.19
2022-10-22T03:08:34.585Z,76.03
2022-10-22T03:09:36.098Z,75.93
2022-10-22T03:10:37.534Z,75.91
2022-10-22T03:11:38.965Z,75.84
2022-10-22T03:12:40.427Z,76.01
2022-10-22T03:13:41.889Z,75.88
2022-10-22T03:14:43.426Z,75.82
2022-10-22T03:15:44.839Z,75.86
2022-10-22T03:16:46.291Z,75.79
2022-10-22T03:17:47.976Z,75.87
2022-10-22T03:18:49.431Z,75.82
2022-10-22T03:19:50.881Z,75.82
2022-10-22T03:20:59.455Z,75.75
2022-10-22T03:22:04.882Z,75.81
2022-10-22T03:23:06.334Z,75.83
2022-10-22T03:24:11.973Z,75.73
2022-10-22T03:25:16.991Z,75.83
2022-10-22T03:26:18.457Z,75.89
2022-10-22T03:27:20.134Z,75.82
2022-10-22T03:28:21.576Z,75.93
2022-10-22T03:29:23.530Z,75.77
2022-10-22T03:30:24.986Z,75.65
2022-10-22T03:31:26.538Z,75.76
2022-10-22T03:32:28.018Z,75.59
2022-10-22T03:33:29.447Z,75.79
2022-10-22T03:34:30.862Z,75.88
2022-10-22T03:35:32.410Z,75.72
2022-10-22T03:36:33.955Z,75.59
2022-10-22T03:37:35.395Z,75.69
2022-10-22T03:38:37.479Z,75.71
2022-10-22T03:39:38.906Z,75.67
2022-10-22T03:40:40.526Z,75.63
2022-10-22T03:41:42.011Z,75.66
2022-10-22T03:42:43.439Z,75.55
2022-10-22T03:43:49.798Z,75.91
2022-10-22T03:44:51.323Z,76.12
2022-10-22T03:45:52.772Z,76.23
2022-10-22T03:46:57.483Z,76.62
2022-10-22T03:48:01.661Z,76.81
2022-10-22T03:49:03.284Z,76.65
2022-10-22T03:50:05.252Z,76.91
2022-10-22T03:51:06.762Z,76.96
2022-10-22T03:52:08.800Z,77.84
2022-10-22T03:53:10.657Z,77.91
2022-10-22T03:54:12.187Z,78.02
2022-10-22T03:55:13.620Z,78.37
2022-10-22T03:56:15.055Z,78.79
2022-10-22T03:57:16.530Z,79.10
2022-10-22T03:58:17.971Z,79.66
2022-10-22T03:59:19.476Z,79.85
2022-10-22T04:00:21.006Z,79.94
2022-10-22T04:01:22.618Z,79.78
2022-10-22T04:02:24.086Z,79.78
2022-10-22T04:03:25.528Z,79.71
2022-10-22T04:04:27.012Z,79.70
2022-10-22T04:05:28.495Z,79.45
2022-10-22T04:06:30.084Z,79.11
2022-10-22T04:07:31.548Z,78.88
2022-10-22T04:08:33.101Z,78.79
2022-10-22T04:09:34.867Z,79.24
2022-10-22T04:10:36.362Z,79.37
2022-10-22T04:11:37.859Z,79.50
2022-10-22T04:12:39.333Z,79.31
2022-10-22T04:13:40.870Z,79.25
2022-10-22T04:14:42.423Z,79.40
2022-10-22T04:15:43.864Z,79.17
2022-10-22T04:16:45.317Z,79.31
2022-10-22T04:17:46.882Z,79.31
2022-10-22T04:18:48.627Z,79.23
2022-10-22T04:19:50.157Z,79.03
2022-10-22T04:20:51.718Z,78.90
2022-10-22T04:21:53.144Z,78.88
2022-10-22T04:22:54.870Z,78.38
2022-10-22T04:23:56.404Z,78.82
2022-10-22T04:24:57.867Z,78.82
2022-10-22T04:25:59.719Z,78.39
2022-10-22T04:27:01.159Z,78.68
2022-10-22T04:28:02.598Z,78.38
2022-10-22T04:29:04.148Z,78.05
2022-10-22T04:30:06.694Z,77.86
2022-10-22T04:31:09.387Z,77.55
2022-10-22T04:32:10.808Z,77.74
2022-10-22T04:33:12.250Z,77.60
2022-10-22T04:34:13.776Z,77.25
2022-10-22T04:35:15.370Z,77.20
2022-10-22T04:36:17.930Z,76.91
2022-10-22T04:37:19.415Z,76.20
2022-10-22T04:38:20.842Z,76.32
2022-10-22T04:39:22.343Z,75.63
2022-10-22T04:40:23.855Z,75.70
2022-10-22T04:41:28.970Z,75.69
2022-10-22T04:42:30.471Z,75.75
2022-10-22T04:43:31.894Z,75.50
2022-10-22T04:44:33.333Z,75.44
2022-10-22T04:45:35.004Z,75.17
2022-10-22T04:46:36.678Z,75.37
2022-10-22T04:47:38.540Z,75.17
2022-10-22T04:48:40.555Z,75.24
2022-10-22T04:49:41.983Z,74.87
2022-10-22T04:50:43.458Z,75.27
2022-10-22T04:51:44.942Z,73.79
2022-10-22T04:52:46.384Z,73.72
2022-10-22T04:53:47.875Z,73.68
2022-10-22T04:54:49.334Z,73.90
2022-10-22T04:55:50.819Z,73.97
2022-10-22T04:56:52.324Z,73.98
2022-10-22T04:57:53.836Z,73.85
2022-10-22T04:58:58.817Z,73.45
2022-10-22T05:00:00.265Z,73.71
2022-10-22T05:01:01.799Z,73.91
2022-10-22T05:02:03.305Z,73.33
2022-10-22T05:03:04.760Z,73.05
2022-10-22T05:04:06.435Z,73.23
2022-10-22T05:05:07.994Z,73.30
2022-10-22T05:06:09.504Z,73.44
2022-10-22T05:07:11.069Z,73.40
2022-10-22T05:08:12.562Z,73.47
2022-10-22T05:09:14.915Z,73.26
2022-10-22T05:10:16.394Z,73.05
2022-10-22T05:11:18.561Z,72.58
2022-10-22T05:12:20.062Z,72.53
2022-10-22T05:13:21.519Z,72.69
2022-10-22T05:14:23.632Z,72.58
2022-10-22T05:15:25.104Z,72.64
2022-10-22T05:16:26.775Z,72.63
2022-10-22T05:17:28.255Z,72.49
2022-10-22T05:18:29.740Z,72.36
2022-10-22T05:19:31.301Z,72.53
2022-10-22T05:20:32.777Z,72.17
2022-10-22T05:21:34.338Z,72.03
2022-10-22T05:22:35.780Z,71.99
2022-10-22T05:23:37.246Z,72.17
2022-10-22T05:24:38.824Z,72.12
2022-10-22T05:25:40.269Z,72.03
2022-10-22T05:26:41.903Z,71.91
2022-10-22T05:27:43.534Z,71.70
2022-10-22T05:28:45.136Z,71.68
2022-10-22T05:29:46.601Z,71.76
2022-10-22T05:30:54.615Z,71.69
2022-10-22T05:31:56.201Z,71.79
2022-10-22T05:32:57.666Z,71.82
2022-10-22T05:33:59.078Z,71.73
2022-10-22T05:35:00.527Z,71.81
2022-10-22T05:36:02.047Z,71.69
2022-10-22T05:37:03.786Z,71.74
2022-10-22T05:38:05.306Z,71.38
2022-10-22T05:39:06.976Z,71.37
2022-10-22T05:40:19.253Z,71.43
2022-10-22T05:41:28.319Z,71.43
2022-10-22T05:42:33.217Z,71.44
2022-10-22T05:43:34.821Z,71.44
2022-10-22T05:44:36.349Z,71.49
2022-10-22T05:45:38.225Z,71.16
2022-10-22T05:46:39.793Z,71.15
2022-10-22T05:47:41.262Z,71.32
2022-10-22T05:48:42.790Z,71.35
2022-10-22T05:49:44.307Z,71.44
2022-10-22T05:50:50.524Z,71.41
2022-10-22T05:51:51.946Z,71.48
2022-10-22T05:52:53.403Z,71.01
2022-10-22T05:53:55.591Z,71.19
2022-10-22T05:54:57.115Z,71.20
2022-10-22T05:56:01.993Z,71.25
2022-10-22T05:57:03.477Z,71.29
2022-10-22T05:58:05.000Z,71.26
2022-10-22T05:59:06.492Z,71.52
2022-10-22T06:00:10.569Z,71.57
2022-10-22T06:01:21.194Z,71.56
2022-10-22T06:02:22.878Z,71.56
2022-10-22T06:03:24.675Z,71.60
2022-10-22T06:04:26.129Z,71.80
2022-10-22T06:05:27.623Z,71.77
2022-10-22T06:06:30.686Z,71.61
2022-10-22T06:07:33.426Z,71.83
2022-10-22T06:08:35.074Z,71.74
2022-10-22T06:10:39.913Z,71.92
2022-10-22T06:11:41.423Z,71.80
2022-10-22T06:12:43.209Z,71.79
2022-10-22T06:13:45.263Z,71.79
2022-10-22T06:14:46.700Z,71.85
2022-10-22T06:15:48.393Z,71.82
2022-10-22T06:16:50.077Z,71.77
2022-10-22T06:17:51.520Z,71.75
2022-10-22T06:18:53.020Z,72.03
2022-10-22T06:19:54.519Z,71.77
2022-10-22T06:20:56.072Z,71.86
2022-10-22T06:21:57.547Z,71.93
2022-10-22T06:22:58.974Z,72.05
2022-10-22T06:24:00.479Z,71.89
2022-10-22T06:25:01.902Z,71.77
2022-10-22T06:26:03.454Z,71.69
2022-10-22T06:27:04.992Z,71.89
2022-10-22T06:28:06.524Z,71.75
2022-10-22T06:29:07.953Z,71.67
2022-10-22T06:30:09.752Z,71.76
2022-10-22T06:31:11.186Z,71.77
2022-10-22T06:32:12.650Z,71.88
2022-10-22T06:33:14.120Z,71.71
2022-10-22T06:34:15.854Z,71.88
2022-10-22T06:35:17.367Z,71.95
2022-10-22T06:36:19.984Z,71.95
2022-10-22T06:37:21.438Z,71.79
2022-10-22T06:38:23.111Z,71.88
2022-10-22T06:39:24.579Z,71.72
2022-10-22T06:40:26.096Z,71.67
2022-10-22T06:41:28.872Z,72.05
2022-10-22T06:42:31.247Z,72.00
2022-10-22T06:43:32.720Z,72.12
2022-10-22T06:44:34.364Z,72.31
2022-10-22T06:45:35.803Z,72.64
2022-10-22T06:46:39.039Z,72.86
2022-10-22T06:47:43.226Z,72.80
2022-10-22T06:48:48.467Z,72.58
2022-10-22T06:49:50.179Z,72.37
2022-10-22T06:50:51.645Z,72.36
2022-10-22T06:51:53.255Z,72.00
2022-10-22T06:52:54.720Z,72.11
2022-10-22T06:53:56.730Z,72.21
2022-10-22T06:54:58.226Z,72.33
2022-10-22T06:55:59.728Z,72.18
2022-10-22T06:57:01.199Z,72.05
2022-10-22T06:58:02.877Z,71.93
2022-10-22T06:59:04.331Z,71.94
2022-10-22T07:00:06.579Z,71.92
2022-10-22T07:01:08.901Z,72.08
2022-10-22T07:02:10.490Z,72.00
2022-10-22T07:03:15.283Z,72.07
2022-10-22T07:04:16.722Z,71.47
2022-10-22T07:05:18.519Z,71.34
2022-10-22T07:06:20.008Z,70.85
2022-10-22T07:07:21.519Z,71.40
2022-10-22T07:08:23.044Z,70.43
2022-10-22T07:09:24.539Z,70.05
2022-10-22T07:10:29.887Z,69.86
2022-10-22T07:11:42.348Z,69.40
2022-10-22T07:12:44.123Z,69.19
2022-10-22T07:13:45.809Z,69.29
2022-10-22T07:14:47.256Z,69.33
2022-10-22T07:15:54.908Z,69.68
2022-10-22T07:16:57.091Z,69.76
2022-10-22T07:17:58.600Z,69.82
2022-10-22T07:19:00.583Z,69.79
2022-10-22T07:20:02.055Z,69.67
2022-10-22T07:21:03.574Z,69.77
2022-10-22T07:22:05.015Z,70.04
2022-10-22T07:23:06.478Z,70.42
2022-10-22T07:24:08.139Z,70.09
2022-10-22T07:25:09.663Z,70.62
2022-10-22T07:26:11.914Z,70.17
2022-10-22T07:27:13.548Z,69.22
2022-10-22T07:28:14.987Z,69.22
2022-10-22T07:29:16.444Z,69.49
2022-10-22T07:30:18.090Z,69.32
2022-10-22T07:31:19.671Z,68.97
2022-10-22T07:32:23.805Z,68.61
2022-10-22T07:33:25.695Z,68.55
2022-10-22T07:34:27.125Z,67.88
2022-10-22T07:35:28.627Z,66.88
2022-10-22T07:36:30.198Z,66.69
2022-10-22T07:37:31.741Z,66.34
2022-10-22T07:38:33.223Z,67.59
2022-10-22T07:39:34.711Z,67.67
2022-10-22T07:40:36.294Z,66.63
2022-10-22T07:41:37.804Z,66.10
2022-10-22T07:42:39.479Z,67.48
2022-10-22T07:43:40.993Z,65.14
2022-10-22T07:44:42.443Z,67.18
2022-10-22T07:45:43.872Z,66.96
2022-10-22T07:46:48.156Z,66.46
2022-10-22T07:47:50.547Z,65.52
2022-10-22T07:48:52.085Z,63.92
2022-10-22T07:49:53.920Z,64.34
2022-10-22T07:50:55.375Z,67.21
2022-10-22T07:51:57.080Z,64.69
2022-10-22T07:52:58.599Z,64.43
2022-10-22T07:54:00.126Z,63.09
2022-10-22T07:55:01.655Z,63.01
2022-10-22T07:56:03.149Z,62.32
2022-10-22T07:57:04.583Z,62.42
2022-10-22T07:58:06.159Z,61.85
2022-10-22T07:59:07.789Z,60.97
2022-10-22T08:00:09.566Z,61.10
2022-10-22T08:01:13.902Z,60.37
2022-10-22T08:02:15.360Z,60.83
2022-10-22T08:03:17.362Z,58.63
2022-10-22T08:04:18.804Z,59.80
2022-10-22T08:05:20.268Z,59.38
2022-10-22T08:06:21.775Z,58.96
2022-10-22T08:07:23.406Z,59.03
2022-10-22T08:08:27.208Z,59.63
2022-10-22T08:09:31.358Z,58.57
2022-10-22T08:10:33.249Z,58.67
2022-10-22T08:11:34.803Z,57.74
2022-10-22T08:12:36.347Z,56.37
2022-10-22T08:13:40.480Z,56.32
2022-10-22T08:14:45.654Z,57.35
2022-10-22T08:15:47.124Z,57.77
2022-10-22T08:16:48.598Z,56.83
2022-10-22T08:17:50.031Z,55.80
2022-10-22T08:18:51.632Z,55.53
2022-10-22T08:19:53.141Z,55.32
2022-10-22T08:20:54.573Z,55.76
2022-10-22T08:21:56.038Z,55.17
2022-10-22T08:22:58.405Z,56.04
2022-10-22T08:23:59.904Z,55.63
2022-10-22T08:25:01.413Z,54.95
2022-10-22T08:26:03.118Z,54.90
2022-10-22T08:27:04.543Z,54.18
2022-10-22T08:28:06.024Z,54.27
2022-10-22T08:29:07.590Z,53.87
2022-10-22T08:30:09.312Z,54.80
2022-10-22T08:31:10.763Z,54.66
2022-10-22T08:32:12.268Z,54.60
2022-10-22T08:33:13.720Z,54.80
2022-10-22T08:34:15.254Z,54.42
2022-10-22T08:35:17.688Z,53.65
2022-10-22T08:36:19.279Z,52.87
2022-10-22T08:37:20.763Z,54.08
2022-10-22T08:38:22.280Z,53.01
2022-10-22T08:39:23.900Z,53.53
2022-10-22T08:40:34.660Z,52.27
2022-10-22T08:42:02.239Z,52.07
2022-10-22T08:43:06.719Z,52.27
2022-10-22T08:44:28.455Z,52.08
2022-10-22T08:45:29.851Z,51.39
2022-10-22T08:46:46.515Z,51.30
2022-10-22T08:47:52.755Z,50.11
2022-10-22T08:48:55.083Z,50.09
2022-10-22T08:49:57.185Z,49.75
2022-10-22T08:50:58.815Z,50.33
2022-10-22T08:52:00.352Z,50.03
2022-10-22T08:53:04.122Z,50.52
2022-10-22T08:54:24.092Z,49.15
2022-10-22T08:55:25.524Z,49.34
2022-10-22T08:56:26.987Z,48.61
2022-10-22T08:57:33.256Z,49.64
2022-10-22T08:58:44.014Z,48.19
2022-10-22T09:00:03.082Z,48.65
2022-10-22T09:01:34.083Z,47.95
2022-10-22T09:02:41.512Z,48.80
2022-10-22T09:03:46.166Z,48.48
2022-10-22T09:04:49.167Z,47.49
2022-10-22T09:06:00.551Z,47.29
2022-10-22T09:07:01.995Z,48.05
2022-10-22T09:08:03.528Z,48.25
2022-10-22T09:09:05.832Z,47.79
2022-10-22T09:10:08.575Z,46.95
2022-10-22T09:11:12.969Z,47.19
2022-10-22T09:12:19.279Z,48.15
2022-10-22T09:13:21.973Z,47.65
2022-10-22T09:14:23.973Z,47.45
2022-10-22T09:15:25.524Z,46.22
2022-10-22T09:16:31.078Z,46.94
2022-10-22T09:17:39.575Z,45.97
2022-10-22T09:19:13.218Z,46.50
2022-10-22T09:20:26.326Z,45.33
2022-10-22T09:21:48.265Z,45.23
2022-10-22T09:22:51.876Z,46.14
2022-10-22T09:23:56.304Z,46.81
2022-10-22T09:25:13.026Z,45.85
2022-10-22T09:26:15.305Z,44.57
2022-10-22T09:27:17.768Z,45.58
2022-10-22T09:28:19.307Z,45.00
2022-10-22T09:29:22.511Z,44.88
2022-10-22T09:30:24.791Z,45.10
2022-10-22T09:31:27.103Z,45.79
2022-10-22T09:32:28.523Z,45.76
2022-10-22T09:33:30.824Z,46.29
2022-10-22T09:34:32.631Z,45.76
2022-10-22T09:35:34.671Z,46.44
2022-10-22T09:36:36.146Z,45.62
2022-10-22T09:37:50.750Z,45.62
2022-10-22T09:38:52.665Z,45.46
2022-10-22T09:39:54.665Z,46.35
2022-10-22T09:40:56.611Z,45.46
2022-10-22T09:41:58.249Z,46.33
2022-10-22T09:42:59.726Z,46.20
2022-10-22T09:44:01.161Z,45.76
2022-10-22T09:45:02.666Z,44.68
2022-10-22T09:46:05.203Z,45.61
2022-10-22T09:47:07.133Z,45.96
2022-10-22T09:48:12.827Z,46.35
2022-10-22T09:49:21.472Z,46.43
2022-10-22T09:50:26.311Z,46.81
2022-10-22T09:51:36.269Z,46.17
2022-10-22T09:52:37.928Z,46.74
2022-10-22T09:53:42.051Z,47.68
2022-10-22T09:54:43.574Z,47.52
2022-10-22T09:55:45.339Z,48.35
2022-10-22T09:56:52.056Z,48.25
2022-10-22T09:57:54.327Z,47.42
2022-10-22T09:58:56.491Z,46.60
2022-10-22T09:59:58.026Z,46.44
2022-10-22T10:01:00.035Z,46.01
2022-10-22T10:02:13.713Z,46.32
2022-10-22T10:03:22.620Z,46.95
2022-10-22T10:05:31.259Z,46.93
2022-10-22T10:06:33.322Z,46.34
2022-10-22T10:07:35.190Z,46.28
2022-10-22T10:08:36.677Z,46.32
2022-10-22T10:09:38.167Z,46.49
2022-10-22T10:10:39.606Z,46.26
2022-10-22T10:12:01.566Z,45.62
2022-10-22T10:13:12.017Z,45.00
2022-10-22T10:14:13.429Z,45.07
2022-10-22T10:15:21.131Z,45.81
2022-10-22T10:16:38.886Z,45.56
2022-10-22T10:17:51.198Z,45.04
2022-10-22T10:19:08.354Z,44.79
2022-10-22T10:20:30.554Z,45.23
2022-10-22T10:21:49.799Z,44.47
2022-10-22T10:22:54.174Z,44.63
2022-10-22T10:24:03.463Z,43.84
2022-10-22T10:25:10.979Z,44.27
2022-10-22T10:26:19.830Z,43.92
2022-10-22T10:27:21.272Z,44.57
2022-10-22T10:28:38.005Z,44.73
2022-10-22T10:29:59.199Z,44.31
2022-10-22T10:31:06.902Z,45.39
2022-10-22T10:32:26.921Z,45.25
2022-10-22T10:33:37.475Z,45.41
2022-10-22T10:34:44.032Z,45.31
2022-10-22T10:35:48.391Z,45.19
2022-10-22T10:37:05.246Z,45.09
2022-10-22T10:38:27.375Z,45.18
2022-10-22T10:39:34.576Z,45.48
2022-10-22T10:40:44.378Z,45.32
2022-10-22T10:41:56.595Z,45.26
2022-10-22T10:42:58.042Z,45.04
2022-10-22T10:44:12.343Z,45.24
2022-10-22T10:45:31.258Z,45.31
2022-10-22T10:46:45.548Z,45.62
2022-10-22T10:47:53.983Z,46.40
2022-10-22T10:48:55.774Z,45.05
2022-10-22T10:50:01.179Z,44.76
2022-10-22T10:51:04.406Z,44.98
2022-10-22T10:52:08.943Z,45.17
2022-10-22T10:53:28.966Z,44.99
2022-10-22T10:54:49.324Z,45.08
2022-10-22T10:56:02.654Z,44.83
2022-10-22T10:57:06.973Z,44.11
2022-10-22T10:58:11.524Z,43.65
2022-10-22T10:59:22.447Z,45.19
2022-10-22T11:00:23.927Z,46.08
2022-10-22T11:01:29.947Z,46.33
2022-10-22T11:02:36.860Z,46.91
2022-10-22T11:03:47.431Z,47.31
2022-10-22T11:05:08.732Z,47.05
2022-10-22T11:06:11.138Z,47.31
2022-10-22T11:07:30.306Z,47.92
2022-10-22T11:08:36.591Z,47.85
2022-10-22T11:09:39.790Z,47.78
2022-10-22T11:10:48.377Z,48.25
2022-10-22T11:11:57.124Z,48.09
2022-10-22T11:13:06.899Z,48.57
2022-10-22T11:14:16.063Z,49.17
2022-10-22T11:15:35.731Z,48.95
2022-10-22T11:16:37.646Z,49.01
2022-10-22T11:17:40.146Z,49.59
2022-10-22T11:18:53.887Z,49.61
2022-10-22T11:20:01.305Z,49.06
2022-10-22T11:21:08.679Z,49.14
2022-10-22T11:22:12.723Z,49.54
2022-10-22T11:23:20.876Z,49.75
2022-10-22T11:24:30.958Z,50.18
2022-10-22T11:25:34.639Z,50.52
2022-10-22T11:26:54.562Z,50.23
2022-10-22T11:28:11.003Z,50.52
2022-10-22T11:29:13.706Z,50.79
2022-10-22T11:30:15.951Z,50.91
2022-10-22T11:31:18.008Z,50.98
2022-10-22T11:32:19.977Z,51.38
2022-10-22T11:33:22.224Z,51.69
2022-10-22T11:34:38.870Z,51.75
2022-10-22T11:35:40.937Z,51.67
2022-10-22T11:36:42.413Z,51.43
2022-10-22T11:37:44.457Z,51.10
2022-10-22T11:38:46.018Z,50.92
2022-10-22T11:40:02.722Z,51.35
2022-10-22T11:41:13.760Z,51.96
2022-10-22T11:42:18.941Z,52.48
2022-10-22T11:43:30.874Z,53.06
2022-10-22T11:44:33.608Z,52.61
2022-10-22T11:45:36.058Z,52.80
2022-10-22T11:46:43.902Z,52.87
2022-10-22T11:48:04.330Z,52.71
2022-10-22T11:49:16.042Z,52.40
2022-10-22T11:50:19.170Z,51.59
2022-10-22T11:51:31.706Z,50.79
2022-10-22T11:52:33.122Z,51.22
2022-10-22T11:53:35.461Z,50.26
2022-10-22T11:54:42.874Z,50.04
2022-10-22T11:55:48.584Z,49.86
2022-10-22T11:56:52.152Z,50.26
2022-10-22T11:57:53.892Z,49.97
2022-10-22T11:58:55.374Z,49.96
2022-10-22T11:59:57.740Z,49.68
2022-10-22T12:01:02.026Z,49.24
2022-10-22T12:02:20.322Z,49.68
2022-10-22T12:03:30.715Z,49.10
2022-10-22T12:04:42.034Z,48.63
2022-10-22T12:05:44.201Z,48.88
2022-10-22T12:06:55.793Z,49.03
2022-10-22T12:07:58.401Z,48.94
2022-10-22T12:09:00.308Z,49.08
2022-10-22T12:10:04.962Z,49.25
2022-10-22T12:11:11.857Z,48.93
2022-10-22T12:12:14.425Z,48.39
2022-10-22T12:13:25.600Z,48.92
2022-10-22T12:14:28.122Z,48.54
2022-10-22T12:15:29.562Z,48.77
2022-10-22T12:16:54.583Z,48.71
2022-10-22T12:18:02.029Z,49.26
2022-10-22T12:19:14.086Z,48.71
2022-10-22T12:20:17.076Z,48.71
2022-10-22T12:21:18.678Z,48.79
2022-10-22T12:22:29.834Z,48.56
2022-10-22T12:23:32.119Z,48.42
2022-10-22T12:24:41.226Z,48.84
2022-10-22T12:25:42.744Z,48.88
2022-10-22T12:26:45.929Z,49.28
2022-10-22T12:27:50.735Z,49.21
2022-10-22T12:28:56.583Z,49.17
2022-10-22T12:29:58.530Z,48.60
2022-10-22T12:31:00.081Z,48.59
2022-10-22T12:32:04.652Z,48.64
2022-10-22T12:33:06.705Z,49.02
2022-10-22T12:34:11.002Z,48.84
2022-10-22T12:35:16.247Z,48.70
2022-10-22T12:36:18.285Z,48.91
2022-10-22T12:37:20.106Z,48.56
2022-10-22T12:38:22.148Z,49.01
2022-10-22T12:39:25.712Z,48.86
2022-10-22T12:40:28.050Z,49.13
2022-10-22T12:41:32.975Z,48.93
2022-10-22T12:42:34.431Z,48.84
2022-10-22T12:43:35.954Z,48.47
2022-10-22T12:44:37.559Z,48.82
2022-10-22T12:45:39.072Z,48.40
2022-10-22T12:46:40.537Z,47.79
2022-10-22T12:47:45.716Z,47.93
2022-10-22T12:48:47.363Z,48.27
2022-10-22T12:49:49.387Z,48.45
2022-10-22T12:50:51.741Z,48.49
2022-10-22T12:51:53.729Z,47.71
2022-10-22T12:52:55.751Z,47.22
2022-10-22T12:54:00.000Z,46.88
2022-10-22T12:55:01.448Z,47.31
2022-10-22T12:56:04.278Z,46.47
2022-10-22T12:57:05.740Z,46.28
2022-10-22T12:58:07.286Z,46.38
2022-10-22T12:59:15.275Z,46.68
2022-10-22T13:00:20.151Z,47.26
2022-10-22T13:01:21.583Z,46.79
2022-10-22T13:02:26.632Z,46.94
2022-10-22T13:03:29.695Z,46.91
2022-10-22T13:04:32.437Z,46.91
2022-10-22T13:05:39.032Z,47.20
2022-10-22T13:06:43.709Z,50.02
2022-10-22T13:07:49.447Z,50.97
2022-10-22T13:09:00.373Z,51.79
2022-10-22T13:10:02.143Z,52.27
2022-10-22T13:11:06.829Z,52.07
2022-10-22T13:12:10.639Z,52.54
2022-10-22T13:13:29.039Z,52.95
2022-10-22T13:14:31.640Z,52.91
2022-10-22T13:15:36.407Z,53.25
2022-10-22T13:16:37.861Z,53.12
2022-10-22T13:17:40.384Z,53.69
2022-10-22T13:18:43.737Z,53.09
2022-10-22T13:19:45.250Z,53.76
2022-10-22T13:20:51.628Z,53.30
2022-10-22T13:21:54.180Z,53.89
2022-10-22T13:23:00.059Z,53.46
2022-10-22T13:24:02.462Z,53.86
2022-10-22T13:25:04.122Z,54.07
2022-10-22T13:26:16.481Z,53.66
2022-10-22T13:27:17.942Z,53.96
2022-10-22T13:28:19.995Z,54.73
2022-10-22T13:29:21.719Z,54.48
2022-10-22T13:30:24.555Z,54.42
2022-10-22T13:31:26.589Z,54.87
2022-10-22T13:32:31.712Z,55.53
2022-10-22T13:33:37.270Z,55.43
2022-10-22T13:34:38.750Z,55.07
2022-10-22T13:35:40.179Z,54.54
2022-10-22T13:36:41.701Z,54.90
2022-10-22T13:37:43.592Z,54.92
2022-10-22T13:38:45.264Z,54.88
2022-10-22T13:39:46.739Z,54.88
2022-10-22T13:40:48.285Z,55.19
2022-10-22T13:41:52.912Z,55.07
2022-10-22T13:42:54.438Z,55.14
2022-10-22T13:43:55.915Z,55.37
2022-10-22T13:44:57.445Z,55.46
2022-10-22T13:45:59.002Z,55.34